Time;durP1;ratioP1;P1;durP2;ratioP2;P2;SDS_P1;SDS_P2;PMS_P1;PMS_P2;Temp;Humidity;BMP_temperature;BMP_pressure;BME280_temperature;BME280_humidity;BME280_pressure;Samples;Min_cycle;Max_cycle;Signal;HPM_P1;HPM_P2
2022/11/25 00:01:06;;;;;;;5.77;2.00;;;;;;;3.51;100.00;95411.16;4937852;29;20194;-82
2022/11/25 00:03:31;;;;;;;6.57;2.33;;;;;;;3.44;100.00;95408.19;4919827;29;20213;-80
2022/11/25 00:05:56;;;;;;;9.33;2.53;;;;;;;3.40;100.00;95417.03;4936469;29;20669;-80
2022/11/25 00:08:21;;;;;;;5.97;2.30;;;;;;;3.44;100.00;95408.19;4943957;29;20200;-80
2022/11/25 00:10:47;;;;;;;8.90;3.17;;;;;;;3.53;100.00;95404.16;4936442;29;20196;-81
2022/11/25 00:13:12;;;;;;;4.23;2.03;;;;;;;3.61;100.00;95410.38;4919024;29;20218;-80
2022/11/25 00:15:37;;;;;;;7.30;2.43;;;;;;;3.58;100.00;95408.06;4920006;29;20194;-81
2022/11/25 00:18:03;;;;;;;6.33;2.53;;;;;;;3.73;100.00;95418.19;4919012;29;20193;-81
2022/11/25 00:20:28;;;;;;;6.23;2.63;;;;;;;3.63;100.00;95413.69;4917523;29;20187;-80
2022/11/25 00:22:54;;;;;;;10.93;2.97;;;;;;;3.68;100.00;95418.50;4920710;29;20225;-80
2022/11/25 00:25:19;;;;;;;6.87;2.77;;;;;;;3.65;100.00;95421.28;4935370;29;20197;-81
2022/11/25 00:27:44;;;;;;;7.43;2.70;;;;;;;3.61;100.00;95423.22;4936845;29;20275;-81
2022/11/25 00:30:10;;;;;;;5.17;2.80;;;;;;;3.69;100.00;95408.09;4936303;29;20213;-80
2022/11/25 00:32:35;;;;;;;9.80;2.97;;;;;;;3.72;99.57;95413.97;4932327;29;20218;-81
2022/11/25 00:35:00;;;;;;;8.60;3.17;;;;;;;3.80;99.35;95397.09;4917107;29;20198;-82
2022/11/25 00:37:28;;;;;;;3.77;2.50;;;;;;;3.81;99.28;95401.28;4935254;29;20185;-80
2022/11/25 00:39:53;;;;;;;5.03;2.13;;;;;;;3.83;99.42;95401.16;4950436;29;20193;-81
2022/11/25 00:45:03;;;;;;;6.33;2.63;;;;;;;3.97;98.69;95408.69;4937190;29;20269;-81
2022/11/25 00:47:28;;;;;;;3.93;2.60;;;;;;;3.87;98.58;95405.97;4919593;29;20233;-81
2022/11/25 00:49:54;;;;;;;8.13;3.07;;;;;;;3.93;98.47;95409.84;4936749;29;20195;-80
2022/11/25 00:52:21;;;;;;;7.40;3.30;;;;;;;3.93;97.91;95400.41;4923355;29;20299;-81
2022/11/25 00:54:50;;;;;;;8.23;3.17;;;;;;;3.85;98.81;95392.41;4923357;29;20221;-81
2022/11/25 00:57:17;;;;;;;7.10;3.13;;;;;;;3.76;99.08;95392.25;4939278;29;20212;-81
2022/11/25 00:59:46;;;;;;;11.13;3.43;;;;;;;3.80;99.57;95409.94;4935294;29;20303;-81
2022/11/25 01:02:12;;;;;;;12.13;2.77;;;;;;;3.72;99.88;95414.78;4939396;29;20709;-80
2022/11/25 01:04:37;;;;;;;5.03;2.63;;;;;;;3.84;99.02;95410.50;4937384;29;20186;-82
2022/11/25 01:07:03;;;;;;;5.73;2.70;;;;;;;3.91;98.65;95416.84;4921329;29;20202;-80
2022/11/25 01:09:28;;;;;;;5.17;3.00;;;;;;;3.90;98.42;95407.50;4921872;29;20249;-81
2022/11/25 01:11:53;;;;;;;9.53;2.60;;;;;;;3.88;98.81;95411.91;4921194;29;20191;-80
2022/11/25 01:14:20;;;;;;;9.83;3.33;;;;;;;3.97;98.24;95414.66;4930419;29;20566;-80
2022/11/25 01:16:45;;;;;;;6.73;3.00;;;;;;;3.89;98.64;95423.88;4936620;29;20191;-80
2022/11/25 01:19:11;;;;;;;6.90;2.97;;;;;;;4.00;97.77;95421.34;4936819;29;20189;-81
2022/11/25 01:21:36;;;;;;;9.17;3.50;;;;;;;3.99;97.76;95424.84;4935786;29;20181;-80
2022/11/25 01:24:03;;;;;;;8.53;3.60;;;;;;;4.02;97.19;95424.59;4920365;29;20216;-81
2022/11/25 01:26:29;;;;;;;6.30;3.03;;;;;;;4.05;97.38;95423.56;4920223;29;20290;-81
2022/11/25 01:28:57;;;;;;;7.07;2.60;;;;;;;4.00;97.48;95431.59;4916634;29;20198;-80
2022/11/25 01:31:23;;;;;;;4.33;2.60;;;;;;;3.94;97.27;95432.84;4920735;29;20250;-80
2022/11/25 01:34:01;;;;;;;5.73;2.70;;;;;;;4.04;97.93;95437.34;4920488;29;20721;-81
2022/11/25 01:36:26;;;;;;;9.03;2.53;;;;;;;3.93;98.06;95435.53;4906414;29;20209;-80
2022/11/25 01:38:54;;;;;;;5.00;2.37;;;;;;;4.11;97.34;95433.41;4918232;29;20651;-81
2022/11/25 01:41:21;;;;;;;3.93;2.17;;;;;;;4.19;96.79;95436.25;4943346;29;20665;-80
2022/11/25 01:44:09;;;;;;;6.40;2.17;;;;;;;4.19;96.94;95431.09;4923643;29;20229;-81
2022/11/25 01:46:43;;;;;;;3.10;2.00;;;;;;;4.29;96.81;95433.81;4918613;29;20571;-82
2022/11/25 01:49:26;;;;;;;5.27;2.00;;;;;;;4.33;96.43;95430.91;4938527;29;20193;-81
2022/11/25 01:52:15;;;;;;;5.63;2.40;;;;;;;4.31;96.26;95430.19;4939853;29;20543;-80
2022/11/25 01:54:49;;;;;;;4.77;2.70;;;;;;;4.37;95.88;95434.06;4939694;29;20665;-81
2022/11/25 01:57:23;;;;;;;5.57;2.17;;;;;;;4.41;95.97;95432.91;4914145;29;20201;-82
2022/11/25 01:59:50;;;;;;;4.13;1.93;;;;;;;4.41;96.31;95435.47;4938338;29;20192;-82
2022/11/25 02:02:16;;;;;;;5.27;1.60;;;;;;;4.34;96.18;95431.75;4926654;29;20213;-81
2022/11/25 02:04:42;;;;;;;4.03;1.90;;;;;;;4.41;95.52;95426.00;4922018;29;20298;-81
2022/11/25 02:07:15;;;;;;;5.77;2.03;;;;;;;4.44;95.12;95427.56;4923336;29;20208;-81
2022/11/25 02:09:41;;;;;;;6.33;2.40;;;;;;;4.44;95.11;95414.69;4922041;29;20189;-82
2022/11/25 02:12:06;;;;;;;5.77;2.20;;;;;;;4.39;94.34;95416.78;4923012;29;20196;-81
2022/11/25 02:14:31;;;;;;;5.87;1.90;;;;;;;4.30;94.89;95423.41;4937231;29;20196;-81
2022/11/25 02:16:59;;;;;;;4.07;1.77;;;;;;;4.33;95.30;95428.34;4938687;29;20190;-81
2022/11/25 02:19:45;;;;;;;3.67;1.70;;;;;;;4.29;96.27;95426.09;4950760;29;20187;-81
2022/11/25 02:22:16;;;;;;;4.97;1.63;;;;;;;4.29;95.79;95421.78;4939729;29;20185;-81
2022/11/25 02:24:44;;;;;;;3.70;1.57;;;;;;;4.33;95.68;95427.50;4939596;29;20283;-82
2022/11/25 02:27:09;;;;;;;5.80;1.80;;;;;;;4.41;95.09;95417.47;4938921;29;20232;-82
2022/11/25 02:29:35;;;;;;;6.67;1.70;;;;;;;4.36;95.15;95424.72;4923129;29;20673;-81
2022/11/25 02:32:00;;;;;;;5.13;1.50;;;;;;;4.41;95.39;95422.63;4923222;29;20554;-81
2022/11/25 02:34:25;;;;;;;4.43;1.57;;;;;;;4.42;95.11;95422.53;4938986;29;20204;-81
2022/11/25 02:36:51;;;;;;;3.87;1.83;;;;;;;4.41;94.77;95414.91;4922782;29;20189;-82
2022/11/25 02:39:18;;;;;;;4.10;1.67;;;;;;;4.37;95.06;95406.59;4937993;29;20197;-80
2022/11/25 02:41:47;;;;;;;7.53;1.90;;;;;;;4.36;95.02;95411.88;4939217;29;20617;-80
2022/11/25 02:44:13;;;;;;;2.77;1.67;;;;;;;4.30;95.13;95402.03;4922602;29;20646;-82
2022/11/25 02:46:38;;;;;;;6.10;1.60;;;;;;;4.39;95.09;95414.22;4921892;29;20217;-81
2022/11/25 02:49:03;;;;;;;7.73;2.07;;;;;;;4.34;95.24;95409.41;4937209;29;20603;-81
2022/11/25 02:51:29;;;;;;;5.67;1.70;;;;;;;4.35;96.06;95410.25;4922201;29;20260;-81
2022/11/25 02:53:55;;;;;;;3.73;1.50;;;;;;;4.42;95.21;95408.84;4937951;29;20241;-80
2022/11/25 02:56:23;;;;;;;4.37;1.50;;;;;;;4.44;94.20;95394.13;4935035;29;20562;-81
2022/11/25 02:58:48;;;;;;;3.93;1.80;;;;;;;4.43;94.35;95402.78;4929095;29;20197;-81
2022/11/25 03:01:14;;;;;;;4.37;1.57;;;;;;;4.40;95.19;95392.69;4937957;29;20256;-82
2022/11/25 03:03:39;;;;;;;5.37;1.63;;;;;;;4.43;94.84;95395.06;4936904;29;20216;-80
2022/11/25 03:06:04;;;;;;;8.73;1.97;;;;;;;4.34;95.57;95386.28;4937044;29;20209;-81
2022/11/25 03:08:30;;;;;;;3.63;1.30;;;;;;;4.48;94.99;95386.06;4919936;29;20198;-80
2022/11/25 03:10:55;;;;;;;6.57;1.37;;;;;;;4.44;94.76;95389.00;4937197;29;20194;-80
2022/11/25 03:13:20;;;;;;;2.07;1.33;;;;;;;4.41;94.85;95390.00;4935813;29;20566;-81
2022/11/25 03:15:46;;;;;;;5.77;1.73;;;;;;;4.38;94.87;95389.44;4928424;29;20237;-80
2022/11/25 03:18:11;;;;;;;6.97;1.90;;;;;;;4.40;94.93;95396.09;4925296;29;20193;-80
2022/11/25 03:20:37;;;;;;;6.87;1.47;;;;;;;4.46;94.73;95387.13;4921187;29;20197;-82
2022/11/25 03:23:03;;;;;;;4.33;1.57;;;;;;;4.50;94.41;95389.31;4917702;29;20211;-80
2022/11/25 03:25:28;;;;;;;2.67;1.50;;;;;;;4.58;93.71;95393.09;4936733;29;20535;-81
2022/11/25 03:27:54;;;;;;;3.33;1.47;;;;;;;4.48;93.04;95385.25;4923771;29;20201;-80
2022/11/25 03:30:22;;;;;;;6.50;1.33;;;;;;;4.47;93.17;95381.03;4921861;29;20643;-82
2022/11/25 03:32:47;;;;;;;4.90;1.60;;;;;;;4.33;93.81;95376.94;4937167;29;20221;-81
2022/11/25 03:35:13;;;;;;;8.93;1.60;;;;;;;4.31;93.31;95375.38;4937182;29;20578;-81
2022/11/25 03:37:39;;;;;;;3.13;1.20;;;;;;;4.23;93.62;95374.19;4933906;29;20673;-81
2022/11/25 03:40:06;;;;;;;3.27;1.30;;;;;;;4.18;93.55;95381.44;4921409;29;20197;-80
2022/11/25 03:42:31;;;;;;;3.97;1.90;;;;;;;4.13;93.50;95380.13;4921645;29;20718;-80
2022/11/25 03:44:56;;;;;;;6.73;1.50;;;;;;;4.15;94.09;95381.69;4924582;29;20186;-81
2022/11/25 03:47:22;;;;;;;7.50;1.43;;;;;;;4.10;93.75;95386.31;4921411;29;20216;-81
2022/11/25 03:49:47;;;;;;;4.97;1.40;;;;;;;4.02;93.71;95383.50;4936845;29;20724;-82
2022/11/25 03:52:12;;;;;;;3.57;1.40;;;;;;;3.97;93.63;95386.38;4919875;29;20228;-82
2022/11/25 03:54:38;;;;;;;5.13;1.30;;;;;;;4.02;94.35;95383.50;4935238;29;20186;-80
2022/11/25 03:57:03;;;;;;;5.27;1.40;;;;;;;4.08;94.66;95379.66;4920720;29;20463;-81
2022/11/25 03:59:28;;;;;;;6.20;1.97;;;;;;;4.13;94.21;95378.38;4920560;29;20197;-80
2022/11/25 04:01:54;;;;;;;2.83;1.20;;;;;;;4.17;94.19;95366.97;4934264;29;20206;-81
2022/11/25 04:04:19;;;;;;;5.13;1.60;;;;;;;4.20;93.98;95371.88;4921071;29;20186;-78
2022/11/25 04:06:44;;;;;;;6.83;1.83;;;;;;;4.25;94.25;95368.97;4937046;29;20573;-79
2022/11/25 04:09:10;;;;;;;7.00;1.90;;;;;;;4.33;94.10;95373.50;4922840;29;20198;-80
2022/11/25 04:14:20;;;;;;;2.47;1.40;;;;;;;4.33;93.47;95361.50;4937446;29;20187;-79
2022/11/25 04:16:45;;;;;;;3.90;1.70;;;;;;;4.25;94.07;95369.78;4919887;29;20276;-81
2022/11/25 04:19:10;;;;;;;4.70;1.40;;;;;;;4.27;93.87;95364.53;4921179;29;20201;-80
2022/11/25 04:21:35;;;;;;;3.60;1.53;;;;;;;4.33;93.44;95358.09;4918073;29;20192;-80
2022/11/25 04:24:01;;;;;;;5.73;1.57;;;;;;;4.28;93.50;95365.34;4917004;29;20576;-78
2022/11/25 04:26:26;;;;;;;5.97;2.03;;;;;;;4.28;93.09;95353.31;4935721;29;20265;-80
2022/11/25 04:28:51;;;;;;;4.37;1.77;;;;;;;4.21;92.85;95357.25;4920819;29;20196;-79
2022/11/25 04:31:17;;;;;;;4.27;1.60;;;;;;;4.14;93.62;95350.94;4921346;29;20216;-79
2022/11/25 04:33:42;;;;;;;7.53;1.57;;;;;;;4.15;93.54;95353.41;4937026;29;20228;-79
2022/11/25 04:36:08;;;;;;;3.30;1.50;;;;;;;4.08;93.91;95357.34;4939165;29;20674;-79
2022/11/25 04:38:33;;;;;;;3.47;1.90;;;;;;;3.88;94.12;95357.97;4941077;29;20207;-79
2022/11/25 04:40:58;;;;;;;6.17;3.47;;;;;;;3.86;95.07;95360.66;4922991;29;20223;-80
2022/11/25 04:43:23;;;;;;;6.17;4.00;;;;;;;3.78;95.06;95362.16;4936793;29;20214;-79
2022/11/25 04:45:49;;;;;;;6.63;3.60;;;;;;;3.72;95.34;95360.84;4938368;29;20225;-80
2022/11/25 04:48:15;;;;;;;8.07;2.80;;;;;;;3.67;95.55;95356.03;4943667;29;20259;-80
2022/11/25 04:50:40;;;;;;;6.23;2.13;;;;;;;3.68;95.79;95356.84;4920158;29;20188;-81
2022/11/25 04:53:05;;;;;;;4.57;2.43;;;;;;;3.60;95.24;95349.69;4936758;29;20249;-81
2022/11/25 04:55:30;;;;;;;6.40;2.47;;;;;;;3.51;95.57;95345.22;4935772;29;20205;-82
2022/11/25 04:57:56;;;;;;;5.80;2.83;;;;;;;3.53;95.45;95342.53;4920944;29;20198;-82
2022/11/25 05:00:21;;;;;;;4.13;2.30;;;;;;;3.50;95.65;95350.47;4936214;29;20237;-81
2022/11/25 05:02:47;;;;;;;7.30;2.80;;;;;;;3.45;95.87;95348.25;4935149;29;20310;-82
2022/11/25 05:05:12;;;;;;;6.97;2.60;;;;;;;3.41;96.11;95351.94;4919620;29;20236;-81
2022/11/25 05:07:37;;;;;;;4.57;2.20;;;;;;;3.35;96.05;95348.06;4919773;29;20230;-80
2022/11/25 05:10:04;;;;;;;4.50;2.00;;;;;;;3.34;96.22;95361.00;4936426;29;20222;-80
2022/11/25 05:12:29;;;;;;;4.93;2.10;;;;;;;3.28;97.04;95364.00;4920622;29;20351;-81
2022/11/25 05:14:55;;;;;;;7.37;2.13;;;;;;;3.29;96.58;95366.47;4926503;29;20968;-80
2022/11/25 05:17:22;;;;;;;6.13;2.73;;;;;;;3.31;96.61;95364.59;4925452;29;20643;-81
2022/11/25 05:19:49;;;;;;;7.40;3.87;;;;;;;3.32;97.14;95365.44;4920225;29;20266;-80
2022/11/25 05:22:16;;;;;;;5.20;3.67;;;;;;;3.46;97.09;95372.16;4936562;29;20708;-81
2022/11/25 05:24:42;;;;;;;5.87;2.97;;;;;;;3.47;96.92;95379.75;4936365;29;20190;-80
2022/11/25 05:27:08;;;;;;;6.57;1.83;;;;;;;3.58;96.58;95371.28;4936748;29;21518;-81
2022/11/25 05:29:33;;;;;;;6.10;2.33;;;;;;;3.63;95.48;95372.59;4949341;28;21013;-80
2022/11/25 05:31:59;;;;;;;4.20;2.07;;;;;;;3.62;95.35;95380.38;4935672;29;20271;-80
2022/11/25 05:34:24;;;;;;;3.33;1.67;;;;;;;3.58;95.87;95384.13;4935563;29;20202;-81
2022/11/25 05:36:50;;;;;;;7.70;2.97;;;;;;;3.69;95.76;95386.75;4937025;29;20194;-81
2022/11/25 05:39:16;;;;;;;2.93;1.50;;;;;;;3.76;94.87;95395.66;4938730;29;20254;-81
2022/11/25 05:41:44;;;;;;;3.30;1.60;;;;;;;3.83;94.53;95394.28;4921600;29;20245;-80
2022/11/25 05:44:09;;;;;;;4.10;1.40;;;;;;;3.84;94.56;95401.06;4922964;29;20317;-81
2022/11/25 05:46:34;;;;;;;4.97;1.53;;;;;;;3.94;93.91;95394.31;4956662;28;20248;-80
2022/11/25 05:49:00;;;;;;;4.83;1.73;;;;;;;3.98;93.19;95402.66;4934249;29;20685;-80
2022/11/25 05:51:27;;;;;;;6.07;2.20;;;;;;;3.89;93.55;95408.44;4921023;29;20194;-80
2022/11/25 05:53:52;;;;;;;3.73;2.03;;;;;;;3.89;92.67;95404.13;4921261;29;20566;-80
2022/11/25 05:56:18;;;;;;;3.87;1.43;;;;;;;3.82;93.86;95404.69;4937613;29;20252;-81
2022/11/25 05:58:43;;;;;;;4.77;1.90;;;;;;;3.78;93.80;95411.75;4939139;29;20199;-80
2022/11/25 06:01:10;;;;;;;7.30;1.53;;;;;;;3.83;93.40;95409.69;4928214;29;20681;-81
2022/11/25 06:03:36;;;;;;;4.63;1.47;;;;;;;3.82;93.48;95408.06;4938951;29;20632;-80
2022/11/25 06:06:01;;;;;;;3.43;1.40;;;;;;;3.84;93.54;95408.75;4922415;29;20308;-80
2022/11/25 06:08:27;;;;;;;4.27;1.53;;;;;;;3.83;92.77;95411.44;4922962;29;20198;-80
2022/11/25 06:10:52;;;;;;;2.80;1.30;;;;;;;3.80;92.99;95409.94;4922782;29;20556;-80
2022/11/25 06:13:18;;;;;;;4.77;1.60;;;;;;;3.73;92.53;95424.13;4918658;29;20285;-79
2022/11/25 06:15:44;;;;;;;3.37;1.17;;;;;;;3.72;93.28;95422.50;4955353;29;20712;-78
2022/11/25 06:18:10;;;;;;;4.10;1.23;;;;;;;3.73;93.24;95424.13;4956721;29;20646;-79
2022/11/25 06:20:35;;;;;;;3.60;1.23;;;;;;;3.76;93.08;95421.34;4923700;29;20197;-79
2022/11/25 06:23:01;;;;;;;4.17;1.30;;;;;;;3.80;92.81;95425.34;4918061;29;20228;-80
2022/11/25 06:25:26;;;;;;;3.20;1.17;;;;;;;3.80;92.35;95424.50;4938157;29;20198;-81
2022/11/25 06:27:51;;;;;;;3.70;1.33;;;;;;;3.81;92.89;95426.16;4952885;29;20220;-81
2022/11/25 06:30:17;;;;;;;2.33;1.33;;;;;;;3.77;92.68;95429.84;4927241;29;20555;-81
2022/11/25 06:32:43;;;;;;;3.23;1.67;;;;;;;3.81;93.14;95432.13;4940064;29;20213;-80
2022/11/25 06:35:08;;;;;;;2.93;1.43;;;;;;;3.78;93.42;95437.44;4951885;29;20204;-79
2022/11/25 06:37:33;;;;;;;1.83;1.03;;;;;;;3.80;93.55;95445.88;4920172;29;20190;-80
2022/11/25 06:39:59;;;;;;;3.10;1.13;;;;;;;3.84;94.13;95443.91;4931657;29;20837;-80
2022/11/25 06:42:24;;;;;;;5.97;1.30;;;;;;;3.94;93.33;95448.28;4920818;29;20224;-81
2022/11/25 06:44:49;;;;;;;3.63;1.30;;;;;;;4.12;92.74;95448.72;4916582;29;20194;-80
2022/11/25 06:47:15;;;;;;;4.23;1.20;;;;;;;4.16;92.41;95446.75;4919907;29;20227;-79
2022/11/25 06:49:40;;;;;;;2.30;0.83;;;;;;;4.24;92.17;95447.00;4937767;29;20654;-80
2022/11/25 06:52:05;;;;;;;2.00;0.90;;;;;;;4.29;92.14;95454.38;4920415;29;20196;-80
2022/11/25 06:54:31;;;;;;;4.60;1.30;;;;;;;4.35;92.53;95459.09;4952963;29;20569;-79
2022/11/25 06:56:56;;;;;;;5.10;0.93;;;;;;;4.43;92.04;95462.72;4951683;28;20178;-79
2022/11/25 06:59:21;;;;;;;2.47;1.10;;;;;;;4.58;91.01;95460.78;4918495;29;20217;-80
2022/11/25 07:01:46;;;;;;;3.00;1.20;;;;;;;4.68;90.13;95458.34;4919834;29;20268;-81
2022/11/25 07:04:12;;;;;;;4.00;1.30;;;;;;;4.71;90.11;95464.09;4924475;29;20210;-81
2022/11/25 07:06:37;;;;;;;3.33;1.03;;;;;;;4.68;90.28;95464.31;4938105;29;20217;-80
2022/11/25 07:09:03;;;;;;;2.23;1.10;;;;;;;4.72;90.15;95468.28;4937928;29;20198;-80
2022/11/25 07:11:34;;;;;;;2.30;1.63;;;;;;;4.77;90.49;95473.09;4911015;29;20201;-80
2022/11/25 07:14:05;;;;;;;4.53;2.03;;;;;;;4.83;90.31;95478.59;4935208;29;20554;-79
2022/11/25 07:16:31;;;;;;;3.50;1.90;;;;;;;4.84;90.47;95474.28;4923229;29;20182;-80
2022/11/25 07:19:00;;;;;;;6.33;1.57;;;;;;;4.90;90.16;95478.97;4950027;29;20190;-80
2022/11/25 07:21:26;;;;;;;3.93;1.60;;;;;;;4.95;90.05;95484.59;4938067;29;20196;-81
2022/11/25 07:23:51;;;;;;;4.33;1.27;;;;;;;5.04;89.80;95493.41;4925269;29;20210;-80
2022/11/25 07:26:20;;;;;;;5.47;1.30;;;;;;;5.02;89.19;95506.34;4939363;29;20201;-80
2022/11/25 07:28:46;;;;;;;3.17;1.53;;;;;;;5.13;88.81;95509.91;4939996;29;20229;-80
2022/11/25 07:31:22;;;;;;;4.37;1.50;;;;;;;5.08;88.54;95513.63;4955913;28;20190;-81
2022/11/25 07:33:51;;;;;;;3.03;1.17;;;;;;;5.20;88.03;95514.44;4922263;29;20229;-81
2022/11/25 07:36:16;;;;;;;3.13;1.30;;;;;;;5.24;88.17;95523.59;4935848;29;20729;-81
2022/11/25 07:38:41;;;;;;;2.73;1.00;;;;;;;5.28;88.11;95516.44;4952819;28;20185;-80
2022/11/25 07:41:28;;;;;;;2.40;1.30;;;;;;;5.33;88.75;95522.91;4919165;29;20224;-80
2022/11/25 07:43:59;;;;;;;7.03;3.00;;;;;;;5.43;88.33;95525.59;4934694;29;20261;-79
2022/11/25 07:46:32;;;;;;;2.57;2.37;;;;;;;5.43;88.86;95528.16;4931311;29;20214;-79
2022/11/25 07:49:03;;;;;;;3.10;2.33;;;;;;;5.52;88.83;95526.66;4936057;29;20209;-80
2022/11/25 07:51:31;;;;;;;3.70;2.57;;;;;;;5.59;89.50;95515.75;4949365;28;20619;-79
2022/11/25 07:53:58;;;;;;;3.53;1.90;;;;;;;5.67;89.59;95508.25;4931194;29;20213;-83
2022/11/25 07:56:23;;;;;;;1.40;1.17;;;;;;;5.78;89.07;95507.44;4916258;29;20661;-80
2022/11/25 07:58:49;;;;;;;4.37;1.40;;;;;;;5.79;89.15;95506.47;4929647;29;20201;-81
2022/11/25 08:01:16;;;;;;;3.47;1.30;;;;;;;5.85;89.22;95508.59;4935723;29;20205;-81
2022/11/25 08:03:42;;;;;;;4.47;1.17;;;;;;;5.88;89.50;95510.91;4931706;29;20847;-82
2022/11/25 08:06:14;;;;;;;4.17;1.87;;;;;;;5.88;89.59;95513.50;4933045;29;20225;-82
2022/11/25 08:08:47;;;;;;;6.20;2.10;;;;;;;5.84;88.42;95514.69;4926108;29;20248;-82
2022/11/25 08:11:15;;;;;;;4.60;2.33;;;;;;;5.82;87.76;95515.72;4949220;29;20193;-82
2022/11/25 08:13:41;;;;;;;3.83;2.40;;;;;;;5.84;86.82;95509.53;4918819;29;20214;-82
2022/11/25 08:16:07;;;;;;;4.93;2.23;;;;;;;5.86;87.08;95506.84;4918901;29;20189;-84
2022/11/25 08:18:32;;;;;;;5.73;2.70;;;;;;;5.88;86.95;95507.53;4923049;29;20229;-83
2022/11/25 08:21:05;;;;;;;5.13;3.23;;;;;;;5.97;87.17;95514.56;4921520;29;20197;-83
2022/11/25 08:23:32;;;;;;;4.73;3.10;;;;;;;6.06;86.98;95525.91;4923373;29;20209;-83
2022/11/25 08:26:06;;;;;;;5.00;2.70;;;;;;;6.05;86.63;95522.53;4939421;29;20198;-83
2022/11/25 08:28:31;;;;;;;2.83;1.43;;;;;;;6.10;86.50;95528.16;4923279;29;20215;-83
2022/11/25 08:31:10;;;;;;;4.63;1.67;;;;;;;6.26;85.77;95525.16;4938966;29;20186;-83
2022/11/25 08:33:36;;;;;;;5.57;1.70;;;;;;;6.31;85.53;95529.97;4937102;29;20225;-83
2022/11/25 08:36:01;;;;;;;4.97;2.53;;;;;;;6.30;86.13;95526.56;4940276;29;20216;-83
2022/11/25 08:38:27;;;;;;;3.27;1.80;;;;;;;6.32;85.71;95523.84;4938125;29;20214;-83
2022/11/25 08:40:52;;;;;;;3.77;1.40;;;;;;;6.49;85.55;95521.56;4947191;29;20233;-82
2022/11/25 08:43:20;;;;;;;5.43;1.87;;;;;;;6.62;85.54;95525.72;4922510;29;20828;-83
2022/11/25 08:45:45;;;;;;;2.70;1.30;;;;;;;6.73;84.35;95525.69;4954541;29;20200;-82
2022/11/25 08:48:11;;;;;;;2.87;1.97;;;;;;;6.74;83.75;95540.25;4932170;29;20273;-83
2022/11/25 08:50:36;;;;;;;3.00;1.73;;;;;;;6.65;83.95;95539.22;4923407;29;20673;-83
2022/11/25 08:53:01;;;;;;;5.57;1.50;;;;;;;6.68;83.91;95544.13;4923721;29;20225;-83
2022/11/25 08:55:27;;;;;;;3.93;1.90;;;;;;;6.78;82.86;95545.00;4934472;29;20268;-83
2022/11/25 08:57:53;;;;;;;3.30;1.50;;;;;;;6.83;83.03;95547.22;4939011;29;20217;-82
2022/11/25 09:00:19;;;;;;;4.00;1.90;;;;;;;6.77;82.45;95547.72;4939425;29;20189;-83
2022/11/25 09:02:44;;;;;;;4.07;2.00;;;;;;;6.73;83.21;95548.94;4923658;29;20681;-83
2022/11/25 09:05:12;;;;;;;6.13;1.63;;;;;;;6.67;82.86;95552.00;4938489;29;20658;-83
2022/11/25 09:07:37;;;;;;;2.97;1.57;;;;;;;6.52;84.03;95560.00;4937787;29;20561;-83
2022/11/25 09:10:04;;;;;;;6.57;1.70;;;;;;;6.60;83.65;95559.41;4941494;29;20253;-83
2022/11/25 09:12:29;;;;;;;4.63;2.00;;;;;;;6.58;84.14;95552.72;4943637;29;20228;-82
2022/11/25 09:14:54;;;;;;;5.63;2.10;;;;;;;6.51;84.60;95566.13;4926837;29;20247;-82
2022/11/25 09:17:20;;;;;;;4.40;2.00;;;;;;;6.42;85.17;95564.28;4925498;29;20184;-82
2022/11/25 09:19:45;;;;;;;7.17;2.30;;;;;;;6.43;85.80;95552.19;4942576;29;20198;-81
2022/11/25 09:22:10;;;;;;;6.77;2.20;;;;;;;6.49;85.75;95560.25;4939704;29;20189;-83
2022/11/25 09:24:35;;;;;;;4.43;2.23;;;;;;;6.61;85.94;95562.78;4924787;29;20248;-82
2022/11/25 09:27:01;;;;;;;3.67;1.83;;;;;;;6.78;85.26;95562.25;4941875;29;20236;-81
2022/11/25 09:29:28;;;;;;;4.13;2.00;;;;;;;6.98;84.81;95571.81;4940707;29;20189;-81
2022/11/25 09:31:54;;;;;;;6.90;1.70;;;;;;;7.15;85.03;95564.41;4937588;29;20209;-81
2022/11/25 09:34:19;;;;;;;7.23;1.57;;;;;;;7.33;84.12;95568.91;4940655;29;20205;-82
2022/11/25 09:36:44;;;;;;;4.10;1.63;;;;;;;7.40;83.71;95569.19;4940357;29;20205;-82
2022/11/25 09:39:10;;;;;;;6.60;1.73;;;;;;;7.72;83.28;95568.28;4940852;29;20221;-82
2022/11/25 09:48:38;;;;;;;7.53;3.23;;;;;;;8.17;82.05;95577.28;4941881;29;20349;-82
2022/11/25 09:51:14;;;;;;;8.13;1.90;;;;;;;8.20;81.66;95571.84;4923540;29;20608;-81
2022/11/25 09:53:46;;;;;;;4.97;1.87;;;;;;;8.21;82.27;95572.66;4923074;29;20209;-83
2022/11/25 09:56:31;;;;;;;9.33;2.00;;;;;;;8.56;81.46;95573.97;4941384;29;20197;-82
2022/11/25 09:59:09;;;;;;;5.13;1.70;;;;;;;8.43;80.90;95576.84;4954527;29;20225;-80
2022/11/25 10:01:47;;;;;;;4.60;1.77;;;;;;;8.56;80.43;95579.97;4938907;29;20225;-83
2022/11/25 10:04:19;;;;;;;6.37;1.80;;;;;;;8.71;80.67;95580.41;4952961;29;20198;-83
2022/11/25 10:06:49;;;;;;;4.53;1.53;;;;;;;8.66;79.96;95582.59;4935398;29;20321;-83
2022/11/25 10:09:16;;;;;;;4.47;1.80;;;;;;;8.78;80.30;95584.91;4935661;29;20206;-83
2022/11/25 10:11:45;;;;;;;3.30;1.80;;;;;;;8.63;80.22;95588.84;4931804;29;20186;-82
2022/11/25 10:14:34;;;;;;;3.93;2.40;;;;;;;8.64;80.58;95594.84;4951058;28;20209;-84
2022/11/25 10:17:07;;;;;;;4.60;2.63;;;;;;;8.58;81.32;95600.56;4920455;29;20186;-83
2022/11/25 10:19:56;;;;;;;5.77;2.30;;;;;;;8.48;82.29;95605.72;4941729;29;20208;-83
2022/11/25 10:22:31;;;;;;;4.67;2.20;;;;;;;8.48;82.32;95605.72;4937360;29;20206;-79
2022/11/25 10:24:59;;;;;;;3.40;1.57;;;;;;;8.55;82.57;95606.00;4936512;29;20187;-85
2022/11/25 10:27:48;;;;;;;8.83;2.20;;;;;;;8.38;83.35;95610.03;4935822;29;20217;-84
2022/11/25 10:30:25;;;;;;;3.63;1.80;;;;;;;8.33;83.59;95607.03;4918978;29;20190;-83
2022/11/25 10:32:54;;;;;;;2.47;1.70;;;;;;;8.26;83.92;95601.56;4932259;29;20220;-85
2022/11/25 10:35:33;;;;;;;4.63;1.60;;;;;;;8.19;84.06;95611.59;4936511;29;20205;-84
2022/11/25 10:38:00;;;;;;;4.73;1.80;;;;;;;8.03;85.25;95619.03;4933941;29;20298;-84
2022/11/25 10:40:26;;;;;;;5.40;1.80;;;;;;;8.03;85.32;95615.63;4915006;29;20191;-85
2022/11/25 10:42:51;;;;;;;4.23;2.30;;;;;;;7.88;87.14;95621.16;4936005;29;20206;-86
2022/11/25 10:45:21;;;;;;;5.50;2.60;;;;;;;7.79;88.02;95624.53;4920410;29;20194;-85
2022/11/25 10:48:05;;;;;;;4.63;2.50;;;;;;;7.76;88.62;95627.34;4934133;29;20531;-88
2022/11/25 10:50:39;;;;;;;7.33;2.43;;;;;;;7.62;89.98;95628.50;4959233;29;20197;-80
2022/11/25 10:53:07;;;;;;;8.77;2.00;;;;;;;7.62;90.46;95631.09;4927383;29;20709;-81
2022/11/25 10:55:33;;;;;;;6.97;2.20;;;;;;;7.63;90.49;95627.56;4943157;29;20237;-79
2022/11/25 10:58:03;;;;;;;5.00;2.30;;;;;;;7.62;90.84;95632.84;4941527;29;20611;-81
2022/11/25 11:00:36;;;;;;;5.03;2.40;;;;;;;7.57;92.66;95627.25;4948093;29;20190;-82
2022/11/25 11:03:23;;;;;;;4.53;2.63;;;;;;;7.50;94.48;95623.50;4916355;29;20210;-82
2022/11/25 11:05:50;;;;;;;8.07;3.70;;;;;;;7.62;94.34;95631.09;4937488;29;20189;-84
2022/11/25 11:08:24;;;;;;;5.10;3.97;;;;;;;7.78;93.74;95632.41;4937645;29;20253;-82
2022/11/25 11:11:15;;;;;;;3.80;2.10;;;;;;;7.92;94.09;95638.03;4933997;29;20193;-83
2022/11/25 11:13:56;;;;;;;3.23;2.03;;;;;;;7.95;93.35;95624.88;4947589;28;20233;-89
2022/11/25 11:16:33;;;;;;;5.63;2.30;;;;;;;8.12;93.25;95641.53;4935762;29;20721;-81
2022/11/25 11:18:58;;;;;;;3.90;2.20;;;;;;;8.16;93.24;95637.75;4937504;29;20193;-81
2022/11/25 11:21:32;;;;;;;4.70;2.37;;;;;;;8.18;92.54;95647.94;4921806;29;20189;-81
2022/11/25 11:23:58;;;;;;;5.17;2.53;;;;;;;8.32;92.70;95644.19;4937228;29;20209;-82
2022/11/25 11:26:32;;;;;;;4.00;2.00;;;;;;;8.24;93.06;95650.84;4950599;29;20579;-81
2022/11/25 11:28:59;;;;;;;3.53;1.80;;;;;;;8.24;92.81;95661.19;4947854;29;20202;-81
2022/11/25 11:31:29;;;;;;;1.93;1.73;;;;;;;8.11;93.27;95655.41;4922616;29;20280;-82
2022/11/25 11:34:05;;;;;;;4.43;1.40;;;;;;;8.15;92.84;95656.81;4912165;29;20221;-83
2022/11/25 11:36:46;;;;;;;3.20;1.80;;;;;;;8.05;93.62;95660.31;4919553;29;20284;-82
2022/11/25 11:39:23;;;;;;;3.20;1.50;;;;;;;7.98;94.02;95662.56;4934813;29;20194;-82
2022/11/25 11:42:10;;;;;;;3.70;1.87;;;;;;;7.96;94.28;95656.72;4951571;29;20213;-81
2022/11/25 11:44:53;;;;;;;5.03;1.90;;;;;;;8.00;94.63;95660.66;4930408;29;20209;-82
2022/11/25 11:47:37;;;;;;;3.27;1.93;;;;;;;8.09;94.00;95661.66;4920489;29;20908;-82
2022/11/25 11:50:22;;;;;;;3.20;1.80;;;;;;;7.95;94.28;95668.84;4920000;29;20204;-82
2022/11/25 11:53:15;;;;;;;3.47;2.00;;;;;;;7.91;93.97;95670.00;4917284;29;20217;-82
2022/11/25 11:55:46;;;;;;;4.30;1.80;;;;;;;7.98;93.84;95674.69;4918329;29;20843;-83
2022/11/25 11:58:20;;;;;;;5.03;2.20;;;;;;;7.79;95.49;95678.00;4933123;29;20249;-82